createdAt,value
2018-11-12T00:01:25.765Z,9.53
2018-11-12T00:03:55.304Z,9.97
2018-11-12T00:06:24.861Z,10.43
2018-11-12T00:08:54.414Z,9.77
2018-11-12T00:11:23.962Z,8.87
2018-11-12T00:13:53.479Z,9.33
2018-11-12T00:16:23.022Z,9.90
2018-11-12T00:18:52.587Z,9.30
2018-11-12T00:21:23.595Z,8.83
2018-11-12T00:23:53.083Z,8.73
2018-11-12T00:26:22.571Z,9.43
2018-11-12T00:28:52.116Z,9.20
2018-11-12T00:31:21.690Z,9.03
2018-11-12T00:33:51.203Z,9.17
2018-11-12T00:36:20.719Z,9.33
2018-11-12T00:38:50.213Z,8.67
2018-11-12T00:41:20.958Z,8.77
2018-11-12T00:43:50.518Z,8.47
2018-11-12T00:46:20.046Z,8.23
2018-11-12T00:48:49.542Z,8.70
2018-11-12T00:51:19.033Z,8.23
2018-11-12T00:53:48.547Z,7.90
2018-11-12T00:56:18.041Z,7.63
2018-11-12T00:58:47.558Z,7.73
2018-11-12T01:01:17.049Z,8.47
2018-11-12T01:03:46.562Z,8.50
2018-11-12T01:06:16.988Z,8.93
2018-11-12T01:08:46.510Z,8.40
2018-11-12T01:11:16.032Z,8.27
2018-11-12T01:13:45.527Z,7.67
2018-11-12T01:16:15.092Z,8.53
2018-11-12T01:18:44.642Z,8.40
2018-11-12T01:21:14.198Z,8.67
2018-11-12T01:23:43.739Z,8.47
2018-11-12T01:26:13.287Z,8.70
2018-11-12T01:28:42.776Z,8.20
2018-11-12T01:31:12.258Z,8.27
2018-11-12T01:33:41.744Z,8.10
2018-11-12T01:36:11.250Z,8.00
2018-11-12T01:38:40.743Z,7.50
2018-11-12T01:41:10.294Z,7.73
2018-11-12T01:43:40.776Z,7.13
2018-11-12T01:46:10.271Z,6.53
2018-11-12T01:48:39.835Z,6.90
2018-11-12T01:51:09.386Z,6.97
2018-11-12T01:53:38.935Z,6.87
2018-11-12T01:56:08.983Z,6.87
2018-11-12T01:58:38.571Z,7.00
2018-11-12T02:01:08.960Z,6.53
2018-11-12T02:03:38.528Z,8.20
2018-11-12T02:06:08.143Z,8.23
2018-11-12T02:08:37.765Z,8.07
2018-11-12T02:11:07.326Z,7.93
2018-11-12T02:13:36.869Z,7.53
2018-11-12T02:16:08.302Z,7.70
2018-11-12T02:18:38.011Z,8.20
2018-11-12T02:21:08.237Z,7.73
2018-11-12T02:23:38.147Z,7.60
2018-11-12T02:26:07.708Z,7.47
2018-11-12T02:28:37.291Z,7.73
2018-11-12T02:31:06.923Z,7.07
2018-11-12T02:33:36.491Z,7.40
2018-11-12T02:36:06.822Z,7.57
2018-11-12T02:38:36.434Z,7.13
2018-11-12T02:41:06.698Z,7.57
2018-11-12T02:43:36.266Z,7.57
2018-11-12T02:46:06.041Z,6.97
2018-11-12T02:48:35.600Z,7.90
2018-11-12T02:51:05.514Z,7.80
2018-11-12T02:53:35.726Z,7.00
2018-11-12T02:56:05.327Z,7.53
2018-11-12T02:58:34.878Z,7.13
2018-11-12T03:01:04.490Z,8.03
2018-11-12T03:03:33.999Z,8.23
2018-11-12T03:06:05.837Z,7.57
2018-11-12T03:08:35.394Z,8.03
2018-11-12T03:11:04.899Z,7.10
2018-11-12T03:13:34.410Z,7.27
2018-11-12T03:16:03.954Z,7.43
2018-11-12T03:18:33.510Z,7.53
2018-11-12T03:21:02.999Z,7.00
2018-11-12T03:23:32.533Z,7.53
2018-11-12T03:26:02.079Z,6.87
2018-11-12T03:28:32.914Z,7.60
2018-11-12T03:31:02.407Z,8.10
2018-11-12T03:33:31.955Z,7.00
2018-11-12T03:36:01.467Z,7.17
2018-11-12T03:38:31.932Z,6.40
2018-11-12T03:41:12.163Z,7.20
2018-11-12T03:43:45.119Z,6.77
2018-11-12T03:46:14.603Z,6.83
2018-11-12T03:48:44.111Z,6.63
2018-11-12T03:51:13.893Z,6.90
2018-11-12T03:53:43.459Z,6.40
2018-11-12T03:56:12.966Z,12.47
2018-11-12T03:58:42.490Z,31.37
2018-11-12T04:01:12.060Z,18.53
2018-11-12T04:03:41.603Z,15.27
2018-11-12T04:06:11.167Z,11.37
2018-11-12T04:08:40.959Z,11.20
2018-11-12T04:11:10.539Z,10.70
2018-11-12T04:13:40.131Z,8.50
2018-11-12T04:16:09.815Z,6.90
2018-11-12T04:18:39.386Z,9.47
2018-11-12T04:21:08.887Z,8.10
2018-11-12T04:23:38.443Z,7.77
2018-11-12T04:26:08.063Z,8.70
2018-11-12T04:28:37.645Z,10.07
2018-11-12T04:31:07.223Z,10.03
2018-11-12T04:33:36.811Z,11.00
2018-11-12T04:36:06.499Z,10.83
2018-11-12T04:38:36.042Z,9.03
2018-11-12T04:41:06.102Z,8.50
2018-11-12T04:43:35.696Z,7.50
2018-11-12T04:46:05.297Z,7.27
2018-11-12T04:48:34.847Z,6.63
2018-11-12T04:51:04.351Z,6.50
2018-11-12T04:53:33.864Z,7.30
2018-11-12T04:56:03.378Z,7.77
2018-11-12T04:58:32.869Z,6.77
2018-11-12T05:01:02.365Z,7.40
2018-11-12T05:03:31.908Z,7.27
2018-11-12T05:06:01.404Z,6.73
2018-11-12T05:08:30.942Z,7.30
2018-11-12T05:11:00.446Z,6.50
2018-11-12T05:13:29.987Z,6.83
2018-11-12T05:15:59.543Z,7.53
2018-11-12T05:18:29.054Z,6.73
2018-11-12T05:20:58.550Z,6.97
2018-11-12T05:23:28.070Z,7.10
2018-11-12T05:25:57.742Z,6.50
2018-11-12T05:28:27.331Z,5.87
2018-11-12T05:30:56.875Z,5.60
2018-11-12T05:33:26.442Z,5.20
2018-11-12T05:35:56.002Z,6.13
2018-11-12T05:38:25.606Z,5.80
2018-11-12T05:40:55.120Z,5.30
2018-11-12T05:43:24.634Z,5.50
2018-11-12T05:45:54.179Z,5.70
2018-11-12T05:48:23.712Z,5.33
2018-11-12T05:50:53.216Z,4.83
2018-11-12T05:53:22.726Z,5.20
2018-11-12T05:55:52.218Z,6.00
2018-11-12T05:58:21.714Z,5.33
2018-11-12T06:00:51.223Z,6.60
2018-11-12T06:03:20.714Z,6.73
2018-11-12T06:05:50.216Z,6.73
2018-11-12T06:08:20.571Z,6.37
2018-11-12T06:10:50.102Z,6.03
2018-11-12T06:13:19.607Z,6.50
2018-11-12T06:15:49.192Z,6.20
2018-11-12T06:18:18.699Z,7.07
2018-11-12T06:20:48.203Z,7.00
2018-11-12T06:23:17.739Z,7.47
2018-11-12T06:25:47.303Z,7.30
2018-11-12T06:28:16.857Z,7.37
2018-11-12T06:30:46.423Z,9.63
2018-11-12T06:33:15.908Z,9.43
2018-11-12T06:35:45.462Z,9.33
2018-11-12T06:38:14.953Z,8.97
2018-11-12T06:40:44.449Z,8.63
2018-11-12T06:43:14.035Z,14.97
2018-11-12T06:45:43.528Z,15.87
2018-11-12T06:48:13.039Z,13.60
2018-11-12T06:50:42.542Z,13.73
2018-11-12T06:53:12.044Z,12.77
2018-11-12T06:55:41.563Z,12.37
2018-11-12T06:58:11.059Z,11.63
2018-11-12T07:00:40.618Z,12.67
2018-11-12T07:03:10.093Z,12.07
2018-11-12T07:05:39.643Z,10.47
2018-11-12T07:08:09.154Z,11.13
2018-11-12T07:10:38.690Z,10.70
2018-11-12T07:13:25.968Z,10.90
2018-11-12T07:16:16.358Z,11.80
2018-11-12T07:19:06.787Z,11.07
2018-11-12T07:21:36.355Z,11.73
2018-11-12T07:24:06.033Z,13.10
2018-11-12T07:26:35.583Z,13.07
2018-11-12T07:29:05.211Z,12.47
2018-11-12T07:31:34.703Z,12.50
2018-11-12T07:34:04.231Z,12.57
2018-11-12T07:36:33.738Z,11.67
2018-11-12T07:39:03.927Z,12.27
2018-11-12T07:41:33.465Z,11.70
2018-11-12T07:44:03.048Z,11.33
2018-11-12T07:46:32.555Z,11.03
2018-11-12T07:49:02.055Z,11.50
2018-11-12T07:51:31.649Z,10.83
2018-11-12T07:54:01.979Z,10.87
2018-11-12T07:56:31.583Z,10.10
2018-11-12T07:59:01.083Z,9.77
2018-11-12T08:01:30.625Z,10.60
2018-11-12T08:04:00.934Z,10.43
2018-11-12T08:06:30.430Z,10.93
2018-11-12T08:09:01.852Z,9.47
2018-11-12T08:11:31.748Z,9.53
2018-11-12T08:14:02.519Z,9.90
2018-11-12T08:16:32.023Z,9.60
2018-11-12T08:19:01.535Z,8.63
2018-11-12T08:21:31.111Z,13.77
2018-11-12T08:24:00.755Z,13.27
2018-11-12T08:26:30.254Z,13.60
2018-11-12T08:28:59.843Z,12.57
2018-11-12T08:31:29.339Z,13.40
2018-11-12T08:33:58.847Z,13.27
2018-11-12T08:36:28.416Z,11.47
2018-11-12T08:38:57.883Z,10.60
2018-11-12T08:41:27.388Z,9.47
2018-11-12T08:43:56.911Z,6.83
2018-11-12T08:46:26.448Z,6.97
2018-11-12T08:48:56.022Z,7.10
2018-11-12T08:51:25.507Z,6.67
2018-11-12T08:53:55.006Z,6.97
2018-11-12T08:56:24.475Z,7.20
2018-11-12T08:58:54.051Z,6.90
2018-11-12T09:01:23.601Z,6.53
2018-11-12T09:03:53.160Z,6.13
2018-11-12T09:06:22.642Z,5.67
2018-11-12T09:08:52.262Z,6.53
2018-11-12T09:11:21.819Z,6.27
2018-11-12T09:13:51.358Z,5.40
2018-11-12T09:16:20.867Z,5.80
2018-11-12T09:18:50.445Z,5.40
2018-11-12T09:21:19.935Z,5.60
2018-11-12T09:23:49.475Z,5.70
2018-11-12T09:26:19.027Z,5.97
2018-11-12T09:28:48.598Z,6.37
2018-11-12T09:31:19.642Z,6.77
2018-11-12T09:33:47.755Z,6.10
2018-11-12T09:36:17.290Z,6.13
2018-11-12T09:38:46.861Z,4.93
2018-11-12T09:41:16.761Z,4.77
2018-11-12T09:43:46.788Z,4.90
2018-11-12T09:46:16.290Z,4.60
2018-11-12T09:48:45.813Z,4.97
2018-11-12T09:51:15.363Z,4.60
2018-11-12T09:53:44.955Z,4.53
2018-11-12T09:56:14.479Z,4.87
2018-11-12T09:58:43.995Z,4.60
2018-11-12T10:01:13.641Z,5.90
2018-11-12T10:03:44.486Z,5.50
2018-11-12T10:06:13.447Z,5.20
2018-11-12T10:08:44.499Z,4.97
2018-11-12T10:11:14.199Z,4.97
2018-11-12T10:13:44.979Z,5.73
2018-11-12T10:16:15.086Z,5.77
2018-11-12T10:18:41.023Z,4.80
2018-11-12T10:21:10.551Z,5.03
2018-11-12T10:23:40.025Z,5.10
2018-11-12T10:26:09.532Z,5.00
2018-11-12T10:28:39.066Z,6.43
2018-11-12T10:31:08.559Z,7.10
2018-11-12T10:33:38.108Z,7.87
2018-11-12T10:36:07.639Z,7.20
2018-11-12T10:38:37.235Z,6.93
2018-11-12T10:41:06.810Z,6.60
2018-11-12T10:43:36.355Z,7.00
2018-11-12T10:46:06.251Z,6.57
2018-11-12T10:48:35.807Z,6.50
2018-11-12T10:51:05.626Z,5.77
2018-11-12T10:53:35.098Z,5.87
2018-11-12T10:56:04.830Z,5.50
2018-11-12T10:58:34.366Z,5.77
2018-11-12T11:01:09.035Z,6.00
2018-11-12T11:03:43.759Z,5.43
2018-11-12T11:06:13.331Z,5.73
2018-11-12T11:08:42.920Z,6.10
2018-11-12T11:11:12.523Z,4.93
2018-11-12T11:13:42.117Z,4.37
2018-11-12T11:16:11.709Z,5.50
2018-11-12T11:18:41.264Z,4.80
2018-11-12T11:21:10.825Z,4.20
2018-11-12T11:23:40.390Z,3.80
2018-11-12T11:26:09.938Z,4.50
2018-11-12T11:28:39.479Z,4.30
2018-11-12T11:31:08.975Z,4.23
2018-11-12T11:33:38.528Z,4.30
2018-11-12T11:36:08.031Z,4.33
2018-11-12T11:38:37.563Z,3.83
2018-11-12T11:41:07.111Z,3.50
2018-11-12T11:43:36.629Z,2.93
2018-11-12T11:46:06.384Z,3.20
2018-11-12T11:48:35.939Z,3.40
2018-11-12T11:51:05.614Z,3.07
2018-11-12T11:53:36.082Z,3.10
2018-11-12T11:56:05.983Z,2.57
2018-11-12T11:58:35.535Z,2.77
2018-11-12T12:01:05.435Z,2.70
2018-11-12T12:03:34.978Z,2.93
2018-11-12T12:06:04.563Z,2.97
2018-11-12T12:08:34.105Z,2.63
2018-11-12T12:11:03.682Z,2.93
2018-11-12T12:13:33.238Z,3.00
2018-11-12T12:16:02.742Z,3.23
2018-11-12T12:18:32.326Z,3.43
2018-11-12T12:21:01.836Z,3.30
2018-11-12T12:23:31.374Z,3.42
2018-11-12T12:26:00.953Z,3.20
2018-11-12T12:28:30.442Z,3.00
2018-11-12T12:30:59.955Z,3.50
2018-11-12T12:33:29.509Z,3.00
2018-11-12T12:35:59.165Z,2.87
2018-11-12T12:38:28.720Z,3.83
2018-11-12T12:40:58.282Z,3.73
2018-11-12T12:43:27.846Z,3.43
2018-11-12T12:45:57.436Z,3.70
2018-11-12T12:48:26.913Z,4.00
2018-11-12T12:50:56.411Z,3.87
2018-11-12T12:53:26.014Z,3.52
2018-11-12T12:55:56.030Z,3.60
2018-11-12T12:58:25.642Z,3.80
2018-11-12T13:00:55.151Z,3.40
2018-11-12T13:03:24.710Z,3.47
2018-11-12T13:05:54.323Z,3.20
2018-11-12T13:08:23.874Z,3.37
2018-11-12T13:10:54.092Z,3.20
2018-11-12T13:13:23.665Z,3.63
2018-11-12T13:15:53.245Z,3.33
2018-11-12T13:18:22.820Z,3.77
2018-11-12T13:20:52.456Z,3.80
2018-11-12T13:23:22.054Z,3.57
2018-11-12T13:25:51.699Z,3.43
2018-11-12T13:28:21.623Z,3.77
2018-11-12T13:30:51.190Z,3.53
2018-11-12T13:33:20.783Z,3.87
2018-11-12T13:35:50.387Z,3.63
2018-11-12T13:38:20.058Z,3.83
2018-11-12T13:40:49.652Z,3.80
2018-11-12T13:43:19.233Z,3.93
2018-11-12T13:45:49.042Z,4.17
2018-11-12T13:48:18.614Z,4.23
2018-11-12T13:50:48.113Z,4.23
2018-11-12T13:53:17.863Z,4.00
2018-11-12T13:55:47.411Z,4.10
2018-11-12T13:58:16.913Z,4.17
2018-11-12T14:00:46.487Z,4.13
2018-11-12T14:03:15.991Z,3.93
2018-11-12T14:05:45.522Z,4.47
2018-11-12T14:08:15.033Z,4.23
2018-11-12T14:10:45.803Z,4.93
2018-11-12T14:13:15.320Z,16.83
2018-11-12T14:15:44.899Z,7.80
2018-11-12T14:18:14.455Z,6.93
2018-11-12T14:20:44.108Z,5.87
2018-11-12T14:23:13.639Z,5.43
2018-11-12T14:25:43.213Z,5.77
2018-11-12T14:28:12.833Z,5.30
2018-11-12T14:30:42.417Z,5.83
2018-11-12T14:33:11.980Z,5.83
2018-11-12T14:35:41.515Z,6.30
2018-11-12T14:38:11.067Z,7.43
2018-11-12T14:40:40.574Z,7.40
2018-11-12T14:43:11.182Z,9.00
2018-11-12T14:45:40.779Z,10.70
2018-11-12T14:48:10.406Z,9.30
2018-11-12T14:50:41.020Z,11.67
2018-11-12T14:53:10.682Z,11.80
2018-11-12T14:55:40.285Z,9.67
2018-11-12T14:58:09.891Z,7.60
2018-11-12T15:00:39.459Z,6.40
2018-11-12T15:03:09.041Z,7.80
2018-11-12T15:05:38.579Z,9.27
2018-11-12T15:08:08.113Z,10.50
2018-11-12T15:10:37.748Z,8.37
2018-11-12T15:13:07.466Z,9.43
2018-11-12T15:15:37.031Z,9.13
2018-11-12T15:18:06.701Z,7.93
2018-11-12T15:20:36.248Z,9.73
2018-11-12T15:23:05.915Z,10.47
2018-11-12T15:25:35.838Z,7.83
2018-11-12T15:28:05.716Z,7.97
2018-11-12T15:30:35.440Z,7.90
2018-11-12T15:33:05.037Z,8.00
2018-11-12T15:35:34.628Z,7.87
2018-11-12T15:38:04.240Z,11.33
2018-11-12T15:40:33.840Z,11.53
2018-11-12T15:43:03.596Z,12.73
2018-11-12T15:45:33.094Z,12.37
2018-11-12T15:48:02.947Z,11.87
2018-11-12T15:50:34.610Z,12.00
2018-11-12T15:53:04.664Z,12.17
2018-11-12T15:55:34.608Z,11.73
2018-11-12T15:58:04.312Z,11.30
2018-11-12T16:00:33.874Z,12.23
2018-11-12T16:03:03.552Z,11.17
2018-11-12T16:05:33.074Z,10.77
2018-11-12T16:08:02.674Z,11.13
2018-11-12T16:10:32.299Z,12.63
2018-11-12T16:13:01.835Z,13.07
2018-11-12T16:15:31.407Z,12.93
2018-11-12T16:18:01.113Z,13.57
2018-11-12T16:20:30.939Z,11.90
2018-11-12T16:23:01.503Z,11.40
2018-11-12T16:25:31.050Z,10.97
2018-11-12T16:28:00.602Z,11.50
2018-11-12T16:30:30.120Z,11.83
2018-11-12T16:32:59.635Z,11.00
2018-11-12T16:35:29.167Z,11.70
2018-11-12T16:37:58.694Z,9.87
2018-11-12T16:40:28.377Z,11.57
2018-11-12T16:42:57.879Z,11.07
2018-11-12T16:45:27.419Z,10.53
2018-11-12T16:47:56.947Z,11.50
2018-11-12T16:50:26.528Z,11.07
2018-11-12T16:52:56.063Z,20.33
2018-11-12T16:55:26.353Z,19.33
2018-11-12T16:57:55.879Z,31.37
2018-11-12T17:00:25.825Z,18.77
2018-11-12T17:02:55.385Z,11.70
2018-11-12T17:05:25.424Z,13.37
2018-11-12T17:07:54.983Z,13.20
2018-11-12T17:10:25.766Z,13.87
2018-11-12T17:12:55.507Z,14.10
2018-11-12T17:15:25.079Z,14.17
2018-11-12T17:17:54.907Z,13.47
2018-11-12T17:20:24.505Z,16.00
2018-11-12T17:22:54.500Z,15.53
2018-11-12T17:25:24.104Z,16.67
2018-11-12T17:27:53.698Z,16.43
2018-11-12T17:30:23.368Z,18.53
2018-11-12T17:32:53.018Z,19.37
2018-11-12T17:35:23.491Z,28.20
2018-11-12T17:37:54.193Z,30.47
2018-11-12T17:40:26.217Z,27.13
2018-11-12T17:42:56.613Z,46.33
2018-11-12T17:45:27.532Z,56.93
2018-11-12T17:47:58.081Z,60.10
2018-11-12T17:50:27.631Z,22.70
2018-11-12T17:52:57.151Z,21.37
2018-11-12T17:55:26.775Z,19.83
2018-11-12T17:57:56.321Z,19.00
2018-11-12T18:00:27.455Z,18.23
2018-11-12T18:02:57.088Z,16.47
2018-11-12T18:05:26.685Z,18.30
2018-11-12T18:07:56.456Z,18.90
2018-11-12T18:10:26.315Z,19.97
2018-11-12T18:12:55.906Z,20.13
2018-11-12T18:15:25.815Z,21.07
2018-11-12T18:20:06.604Z,21.27
2018-11-12T18:22:36.143Z,22.63
2018-11-12T18:25:09.319Z,21.33
2018-11-12T18:27:39.172Z,21.03
2018-11-12T18:30:11.971Z,27.37
2018-11-12T18:32:42.056Z,23.63
2018-11-12T18:35:11.683Z,30.10
2018-11-12T18:37:41.338Z,33.60
2018-11-12T18:40:12.887Z,22.37
2018-11-12T18:42:43.807Z,17.93
2018-11-12T18:45:15.464Z,20.90
2018-11-12T18:47:45.486Z,17.77
2018-11-12T18:50:17.589Z,17.67
2018-11-12T18:52:47.595Z,18.53
2018-11-12T18:55:17.114Z,16.43
2018-11-12T18:57:47.500Z,17.73
2018-11-12T19:00:19.299Z,17.00
2018-11-12T19:02:49.363Z,16.47
2018-11-12T19:05:23.256Z,17.27
2018-11-12T19:07:54.237Z,18.53
2018-11-12T19:10:25.962Z,23.47
2018-11-12T19:12:55.612Z,24.10
2018-11-12T19:15:29.816Z,20.33
2018-11-12T19:18:01.119Z,20.47
2018-11-12T19:20:30.778Z,23.13
2018-11-12T19:23:00.471Z,21.13
2018-11-12T19:25:30.029Z,18.00
2018-11-12T19:27:59.611Z,18.97
2018-11-12T19:30:29.786Z,19.43
2018-11-12T19:32:59.308Z,18.83
2018-11-12T19:35:30.154Z,18.63
2018-11-12T19:37:59.842Z,19.73
2018-11-12T19:40:30.528Z,21.23
2018-11-12T19:43:00.131Z,20.23
2018-11-12T19:45:29.726Z,20.43
2018-11-12T19:47:59.522Z,23.60
2018-11-12T19:50:29.803Z,22.87
2018-11-12T19:53:02.315Z,23.13
2018-11-12T19:55:31.931Z,22.93
2018-11-12T19:58:01.588Z,23.20
2018-11-12T20:00:31.185Z,24.37
2018-11-12T20:03:01.863Z,24.90
2018-11-12T20:05:31.539Z,26.50
2018-11-12T20:08:01.402Z,24.73
2018-11-12T20:10:31.001Z,23.97
2018-11-12T20:13:00.555Z,24.13
2018-11-12T20:15:30.280Z,23.47
2018-11-12T20:17:59.886Z,24.23
2018-11-12T20:20:31.168Z,23.10
2018-11-12T20:23:00.735Z,22.80
2018-11-12T20:25:30.324Z,22.53
2018-11-12T20:28:00.051Z,23.07
2018-11-12T20:30:33.587Z,21.53
2018-11-12T20:33:03.452Z,22.30
2018-11-12T20:35:33.803Z,21.67
2018-11-12T20:38:03.939Z,20.53
2018-11-12T20:40:33.508Z,21.83
2018-11-12T20:43:03.063Z,20.97
2018-11-12T20:45:32.644Z,21.60
2018-11-12T20:48:02.305Z,22.67
2018-11-12T20:50:31.924Z,21.97
2018-11-12T20:53:01.517Z,21.60
2018-11-12T20:55:31.280Z,21.40
2018-11-12T20:58:00.895Z,21.30
2018-11-12T21:00:30.512Z,20.40
2018-11-12T21:03:00.114Z,20.37
2018-11-12T21:05:30.579Z,19.97
2018-11-12T21:08:00.240Z,21.50
2018-11-12T21:10:29.828Z,18.77
2018-11-12T21:12:59.845Z,18.93
2018-11-12T21:15:29.542Z,19.73
2018-11-12T21:17:59.264Z,19.33
2018-11-12T21:20:35.118Z,19.30
2018-11-12T21:23:04.752Z,18.87
2018-11-12T21:25:34.350Z,20.03
2018-11-12T21:28:04.011Z,22.40
2018-11-12T21:30:33.643Z,20.80
2018-11-12T21:33:03.245Z,18.53
2018-11-12T21:35:32.941Z,19.67
2018-11-12T21:38:02.564Z,20.60
2018-11-12T21:40:32.103Z,20.00
2018-11-12T21:43:02.727Z,19.63
2018-11-12T21:45:32.335Z,19.20
2018-11-12T21:48:01.848Z,18.87
2018-11-12T21:50:31.454Z,18.57
2018-11-12T21:53:01.200Z,18.87
2018-11-12T21:55:30.782Z,20.67
2018-11-12T21:58:00.709Z,19.97
2018-11-12T22:00:30.335Z,19.13
2018-11-12T22:03:01.212Z,20.00
2018-11-12T22:05:31.816Z,20.17
2018-11-12T22:08:01.735Z,20.53
2018-11-12T22:10:31.395Z,21.13
2018-11-12T22:13:00.963Z,20.03
2018-11-12T22:15:30.535Z,20.20
2018-11-12T22:18:00.026Z,20.07
2018-11-12T22:20:29.722Z,17.53
2018-11-12T22:22:59.227Z,16.93
2018-11-12T22:25:28.754Z,17.13
2018-11-12T22:27:58.341Z,17.77
2018-11-12T22:30:28.222Z,17.87
2018-11-12T22:32:57.814Z,17.93
2018-11-12T22:35:27.382Z,18.07
2018-11-12T22:37:56.979Z,17.60
2018-11-12T22:40:26.596Z,16.10
2018-11-12T22:42:56.127Z,17.87
2018-11-12T22:45:25.875Z,17.20
2018-11-12T22:47:55.460Z,16.93
2018-11-12T22:50:25.007Z,17.60
2018-11-12T22:52:54.563Z,17.37
2018-11-12T22:55:24.122Z,16.70
2018-11-12T22:57:53.994Z,16.67
2018-11-12T23:00:44.773Z,17.13
2018-11-12T23:03:14.319Z,16.47
2018-11-12T23:05:43.826Z,16.33
2018-11-12T23:08:14.359Z,16.13
2018-11-12T23:10:43.904Z,15.17
2018-11-12T23:13:13.442Z,22.57
2018-11-12T23:15:43.036Z,61.30
2018-11-12T23:18:12.573Z,56.03
2018-11-12T23:20:42.145Z,42.90
2018-11-12T23:23:11.667Z,33.97
2018-11-12T23:25:41.192Z,27.90
2018-11-12T23:28:10.776Z,36.77
2018-11-12T23:30:40.353Z,36.63
2018-11-12T23:33:10.079Z,33.50
2018-11-12T23:35:39.615Z,28.33
2018-11-12T23:38:09.155Z,28.10
2018-11-12T23:40:38.775Z,24.37
2018-11-12T23:43:08.763Z,23.50
2018-11-12T23:45:38.255Z,22.77
2018-11-12T23:48:07.807Z,23.13
2018-11-12T23:50:37.350Z,23.33
2018-11-12T23:53:06.894Z,18.77
2018-11-12T23:55:36.394Z,19.33
2018-11-12T23:58:05.986Z,15.77
